Time;durP1;ratioP1;P1;durP2;ratioP2;P2;SDS_P1;SDS_P2;PMS_P1;PMS_P2;Temp;Humidity;BMP_temperature;BMP_pressure;BME280_temperature;BME280_humidity;BME280_pressure;Samples;Min_cycle;Max_cycle;Signal;HPM_P1;HPM_P2
2022/12/01 00:01:30;;;;;;;6.50;5.80;;;17.40;49.00;;;;;;5015930;28;20189;-70
2022/12/01 00:03:57;;;;;;;5.90;5.30;;;17.40;49.10;;;;;;5015005;28;20246;-70
2022/12/01 00:06:24;;;;;;;5.97;5.32;;;17.40;49.00;;;;;;5016457;28;20193;-70
2022/12/01 00:11:36;;;;;;;5.82;5.22;;;17.40;49.10;;;;;;5014479;28;20571;-70
2022/12/01 00:14:04;;;;;;;6.32;5.43;;;17.30;49.00;;;;;;5015618;28;20199;-70
2022/12/01 00:16:31;;;;;;;5.82;5.22;;;17.30;49.00;;;;;;5015608;28;20200;-70
2022/12/01 00:18:58;;;;;;;5.78;5.18;;;17.30;49.00;;;;;;5014059;28;20722;-70
2022/12/01 00:21:25;;;;;;;7.00;6.13;;;17.30;49.10;;;;;;5013728;28;20189;-70
2022/12/01 00:23:55;;;;;;;6.88;5.90;;;17.30;49.10;;;;;;5013889;28;20204;-70
2022/12/01 00:26:22;;;;;;;6.20;5.60;;;17.30;49.10;;;;;;5014809;28;20247;-70
2022/12/01 00:28:50;;;;;;;5.93;5.32;;;17.30;49.10;;;;;;5013288;28;20227;-70
2022/12/01 00:31:18;;;;;;;6.07;5.35;;;17.30;49.10;;;;;;5013857;28;20201;-70
2022/12/01 00:33:45;;;;;;;6.47;5.88;;;17.30;49.20;;;;;;5013284;28;20197;-70
2022/12/01 00:36:12;;;;;;;6.00;5.40;;;17.20;49.10;;;;;;5013250;28;20216;-70
2022/12/01 00:38:39;;;;;;;6.15;5.50;;;17.20;49.20;;;;;;5014477;28;20208;-70
2022/12/01 00:41:07;;;;;;;7.30;5.85;;;17.20;49.20;;;;;;5013296;28;20686;-70
2022/12/01 00:43:33;;;;;;;6.82;5.93;;;17.20;49.20;;;;;;5014535;28;20220;-70
2022/12/01 00:46:01;;;;;;;6.22;5.63;;;17.20;49.20;;;;;;5013249;28;20629;-70
2022/12/01 00:48:29;;;;;;;7.45;6.18;;;17.20;49.30;;;;;;5014312;28;20213;-70
2022/12/01 00:50:56;;;;;;;6.20;5.60;;;17.10;49.20;;;;;;5013394;28;20201;-70
2022/12/01 00:53:24;;;;;;;7.50;6.13;;;17.10;49.30;;;;;;5013211;28;20209;-70
2022/12/01 00:55:53;;;;;;;5.97;5.38;;;17.10;49.40;;;;;;5012918;28;20278;-70
2022/12/01 00:58:20;;;;;;;6.15;5.57;;;17.10;49.40;;;;;;5012983;28;20193;-70
2022/12/01 01:00:47;;;;;;;6.75;5.90;;;17.10;49.30;;;;;;5012906;28;20304;-70
2022/12/01 01:03:15;;;;;;;6.60;6.00;;;17.00;49.30;;;;;;5014331;28;20275;-70
2022/12/01 01:05:43;;;;;;;6.50;5.80;;;17.10;49.30;;;;;;5013594;28;20193;-70
2022/12/01 01:08:11;;;;;;;7.53;6.47;;;17.10;49.40;;;;;;5013117;28;20200;-70
2022/12/01 01:10:39;;;;;;;6.75;6.05;;;17.00;49.30;;;;;;5013499;28;20200;-70
2022/12/01 01:13:06;;;;;;;6.57;5.97;;;17.00;49.40;;;;;;5014089;28;20271;-70
2022/12/01 01:15:33;;;;;;;6.50;5.80;;;17.00;49.50;;;;;;5012664;28;20213;-70
2022/12/01 01:18:00;;;;;;;6.32;5.72;;;17.00;49.50;;;;;;5013975;28;20648;-70
2022/12/01 01:20:28;;;;;;;6.93;5.95;;;17.00;49.50;;;;;;5013388;28;20224;-70
2022/12/01 01:22:56;;;;;;;6.68;5.97;;;17.00;49.50;;;;;;5012747;28;20247;-70
2022/12/01 01:25:24;;;;;;;6.00;5.40;;;17.00;49.30;;;;;;5013964;28;20258;-70
2022/12/01 01:27:51;;;;;;;6.60;6.00;;;16.90;49.50;;;;;;5012753;28;20609;-70
2022/12/01 01:30:20;;;;;;;6.45;5.55;;;16.90;49.40;;;;;;5012703;28;20704;-70
2022/12/01 01:32:47;;;;;;;6.60;5.90;;;16.90;49.20;;;;;;5012779;28;20230;-70
2022/12/01 01:35:14;;;;;;;6.55;5.85;;;16.90;49.20;;;;;;5012378;28;20212;-70
2022/12/01 01:37:42;;;;;;;6.68;5.78;;;16.90;49.20;;;;;;4996256;28;20572;-70
2022/12/01 01:40:11;;;;;;;7.22;6.05;;;16.90;49.50;;;;;;5014041;28;20247;-70
2022/12/01 01:42:38;;;;;;;6.30;5.65;;;16.90;49.40;;;;;;5012533;28;20271;-70
2022/12/01 01:45:16;;;;;;;9.02;6.40;;;16.90;49.30;;;;;;5014145;28;20698;-70
2022/12/01 01:47:44;;;;;;;6.50;5.90;;;16.90;49.50;;;;;;5015710;28;20196;-70
2022/12/01 01:50:12;;;;;;;6.40;5.75;;;16.80;49.40;;;;;;5016425;28;20227;-70
2022/12/01 01:52:43;;;;;;;7.10;6.00;;;16.80;49.60;;;;;;5017605;28;20538;-70
2022/12/01 01:55:12;;;;;;;5.80;5.28;;;16.80;50.30;;;;;;5017268;28;20266;-70
2022/12/01 01:57:39;;;;;;;7.20;6.20;;;16.80;49.70;;;;;;5016650;28;20196;-70
2022/12/01 02:00:08;;;;;;;6.55;5.85;;;16.80;49.60;;;;;;5016620;28;20299;-70
2022/12/01 02:02:43;;;;;;;6.32;5.35;;;16.80;49.70;;;;;;5017036;28;20204;-70
2022/12/01 02:05:13;;;;;;;6.03;5.43;;;16.80;50.00;;;;;;5016954;28;20270;-70
2022/12/01 02:07:40;;;;;;;6.22;5.63;;;16.80;49.80;;;;;;5016694;28;20207;-70
2022/12/01 02:10:08;;;;;;;5.75;5.20;;;16.80;50.00;;;;;;5016799;28;20224;-70
2022/12/01 02:12:46;;;;;;;6.47;5.30;;;16.70;49.70;;;;;;5016861;28;20221;-70
2022/12/01 02:15:18;;;;;;;6.85;6.13;;;16.70;49.70;;;;;;5017807;28;20255;-70
2022/12/01 02:17:48;;;;;;;6.78;6.03;;;16.70;49.80;;;;;;5018275;28;20558;-70
2022/12/01 02:20:36;;;;;;;6.03;5.47;;;16.70;49.80;;;;;;5018062;28;20228;-70
2022/12/01 02:23:31;;;;;;;6.80;6.10;;;16.70;49.80;;;;;;5017289;28;20193;-70
2022/12/01 02:26:04;;;;;;;6.57;5.88;;;16.70;49.80;;;;;;5015599;28;20542;-70
2022/12/01 02:28:57;;;;;;;7.45;6.20;;;16.70;50.30;;;;;;5017568;28;20283;-70
2022/12/01 02:31:28;;;;;;;6.28;5.68;;;16.60;49.70;;;;;;5017220;28;20193;-70
2022/12/01 02:33:56;;;;;;;7.13;6.43;;;16.60;49.90;;;;;;5017238;28;20193;-70
2022/12/01 02:36:29;;;;;;;6.55;5.82;;;16.60;49.80;;;;;;5015809;28;20217;-70
2022/12/01 02:38:59;;;;;;;6.93;6.22;;;16.60;49.90;;;;;;5015781;28;20247;-70
2022/12/01 02:41:28;;;;;;;6.55;5.80;;;16.60;49.70;;;;;;5015963;28;20672;-70
2022/12/01 02:43:57;;;;;;;6.72;6.03;;;16.60;49.80;;;;;;5015693;28;20215;-70
2022/12/01 02:46:27;;;;;;;6.38;5.78;;;16.60;49.90;;;;;;5015421;28;20200;-70
2022/12/01 02:48:54;;;;;;;6.28;5.68;;;16.60;50.40;;;;;;5015641;28;20223;-70
2022/12/01 02:51:24;;;;;;;6.50;5.88;;;16.60;49.70;;;;;;5015433;28;20649;-70
2022/12/01 02:53:51;;;;;;;7.20;6.50;;;16.60;49.70;;;;;;5015234;28;20711;-70
2022/12/01 02:56:20;;;;;;;6.82;6.07;;;16.60;50.10;;;;;;5015333;28;20283;-70
2022/12/01 02:58:48;;;;;;;6.82;6.13;;;16.60;49.80;;;;;;5015123;28;20224;-70
2022/12/01 03:01:22;;;;;;;6.63;5.93;;;16.60;49.80;;;;;;5015394;28;20201;-70
2022/12/01 03:04:15;;;;;;;6.65;6.00;;;16.50;49.70;;;;;;5015046;28;20207;-70
2022/12/01 03:06:48;;;;;;;6.57;5.97;;;16.50;50.00;;;;;;5016580;28;20177;-70
2022/12/01 03:09:19;;;;;;;5.65;5.07;;;16.50;49.70;;;;;;5015535;28;20586;-70
2022/12/01 03:11:51;;;;;;;6.68;5.97;;;16.50;50.00;;;;;;5016710;28;20275;-70
2022/12/01 03:14:23;;;;;;;6.18;5.55;;;16.50;49.70;;;;;;5014914;28;20201;-70
2022/12/01 03:16:51;;;;;;;6.85;6.15;;;16.50;49.70;;;;;;5014761;28;20220;-70
2022/12/01 03:19:23;;;;;;;6.70;5.72;;;16.50;49.80;;;;;;5015213;28;20227;-70
2022/12/01 03:21:56;;;;;;;7.07;6.38;;;16.50;49.90;;;;;;5016482;28;20224;-70
2022/12/01 03:24:26;;;;;;;7.03;6.00;;;16.50;50.00;;;;;;5016236;28;20184;-70
2022/12/01 03:26:56;;;;;;;6.90;6.20;;;16.50;49.90;;;;;;5014706;28;20192;-70
2022/12/01 03:29:25;;;;;;;6.38;5.78;;;16.50;49.90;;;;;;4998448;28;20286;-70
2022/12/01 03:31:54;;;;;;;6.63;5.95;;;16.50;50.00;;;;;;5014861;28;20201;-70
2022/12/01 03:34:24;;;;;;;6.93;6.28;;;16.50;50.00;;;;;;5014641;28;20550;-70
2022/12/01 03:36:52;;;;;;;6.80;6.07;;;16.50;49.80;;;;;;5014674;28;20216;-70
2022/12/01 03:39:22;;;;;;;7.18;6.47;;;16.50;50.00;;;;;;5014308;28;20221;-70
2022/12/01 03:41:51;;;;;;;6.15;5.55;;;16.40;49.90;;;;;;5014499;28;20664;-70
2022/12/01 03:44:20;;;;;;;7.18;6.18;;;16.40;50.40;;;;;;5015141;28;20660;-70
2022/12/01 03:46:49;;;;;;;6.20;5.60;;;16.40;49.90;;;;;;5015841;28;20186;-68
2022/12/01 03:49:16;;;;;;;6.90;6.22;;;16.40;50.10;;;;;;5014615;28;20717;-68
2022/12/01 03:51:48;;;;;;;6.60;6.00;;;16.40;49.90;;;;;;5015997;28;20661;-68
2022/12/01 03:54:18;;;;;;;6.32;5.72;;;16.40;50.00;;;;;;5014638;28;20232;-67
2022/12/01 03:56:47;;;;;;;7.38;6.60;;;16.40;50.30;;;;;;5014509;28;20219;-67
2022/12/01 03:59:14;;;;;;;7.03;6.15;;;16.40;49.90;;;;;;5014500;28;20564;-67
2022/12/01 04:01:42;;;;;;;6.18;5.57;;;16.40;49.90;;;;;;5014335;28;20205;-67
2022/12/01 04:04:12;;;;;;;6.53;5.93;;;16.40;49.90;;;;;;5014558;28;20729;-67
2022/12/01 04:06:40;;;;;;;7.40;6.25;;;16.30;49.90;;;;;;5014897;28;20193;-67
2022/12/01 04:09:08;;;;;;;6.38;5.78;;;16.30;50.30;;;;;;5013962;28;20220;-67
2022/12/01 04:14:20;;;;;;;6.60;5.90;;;16.40;50.00;;;;;;5015200;28;20220;-67
2022/12/01 04:16:48;;;;;;;6.65;6.00;;;16.40;50.00;;;;;;5016878;28;20578;-69
2022/12/01 04:19:15;;;;;;;7.20;6.32;;;16.40;50.20;;;;;;5015468;28;20220;-69
2022/12/01 04:21:42;;;;;;;6.88;6.18;;;16.40;50.40;;;;;;5015045;28;20196;-69
2022/12/01 04:24:13;;;;;;;6.82;6.03;;;16.40;50.40;;;;;;5014471;28;20283;-70
2022/12/01 04:26:40;;;;;;;6.75;6.10;;;16.40;50.60;;;;;;5014715;28;20193;-70
2022/12/01 04:29:09;;;;;;;6.70;6.10;;;16.40;50.40;;;;;;5014555;28;20267;-70
2022/12/01 04:31:37;;;;;;;7.45;6.75;;;16.40;50.40;;;;;;5014335;28;20197;-70
2022/12/01 04:34:04;;;;;;;7.05;6.35;;;16.50;50.40;;;;;;5013349;28;20570;-70
2022/12/01 04:36:31;;;;;;;7.05;6.35;;;16.50;50.40;;;;;;5013963;28;20224;-70
2022/12/01 04:38:58;;;;;;;6.75;6.05;;;16.50;50.80;;;;;;5014875;28;20306;-70
2022/12/01 04:41:27;;;;;;;7.05;6.10;;;16.50;50.30;;;;;;5013880;28;20269;-70
2022/12/01 04:43:54;;;;;;;6.70;6.00;;;16.60;50.40;;;;;;4997788;28;20570;-70
2022/12/01 04:46:22;;;;;;;7.53;6.78;;;16.60;50.30;;;;;;5015064;28;20267;-70
2022/12/01 04:48:48;;;;;;;6.15;5.55;;;16.60;50.70;;;;;;5013895;28;20227;-70
2022/12/01 04:51:16;;;;;;;5.93;5.32;;;16.60;50.20;;;;;;5015235;28;20566;-70
2022/12/01 04:53:43;;;;;;;6.00;5.40;;;16.60;50.20;;;;;;5033838;28;20204;-70
2022/12/01 04:56:10;;;;;;;6.72;6.03;;;16.70;49.90;;;;;;5033745;28;20628;-70
2022/12/01 04:58:39;;;;;;;6.72;6.13;;;16.60;49.90;;;;;;5035458;28;20706;-70
2022/12/01 05:01:07;;;;;;;6.65;5.93;;;16.60;49.70;;;;;;5034302;28;20231;-70
2022/12/01 05:03:36;;;;;;;6.22;5.55;;;16.70;49.70;;;;;;5033365;28;20199;-69
2022/12/01 05:06:03;;;;;;;6.57;5.93;;;16.70;49.60;;;;;;5033491;28;20681;-71
2022/12/01 05:08:30;;;;;;;6.93;6.22;;;16.70;49.40;;;;;;5033336;28;20586;-70
2022/12/01 05:10:57;;;;;;;6.38;5.78;;;16.70;49.50;;;;;;5033226;28;20204;-70
2022/12/01 05:13:24;;;;;;;7.65;6.22;;;16.70;49.20;;;;;;5033119;28;20191;-70
2022/12/01 05:15:53;;;;;;;6.78;6.07;;;16.70;49.30;;;;;;5033086;28;20223;-69
2022/12/01 05:18:20;;;;;;;6.55;5.90;;;16.70;49.30;;;;;;5032758;28;20208;-69
2022/12/01 05:20:57;;;;;;;6.72;6.00;;;16.70;49.30;;;;;;5025641;28;20200;-70
2022/12/01 05:23:24;;;;;;;6.82;6.10;;;16.80;49.30;;;;;;5013374;28;20274;-70
2022/12/01 05:25:52;;;;;;;7.57;6.47;;;16.80;49.30;;;;;;5011343;28;20287;-70
2022/12/01 05:28:20;;;;;;;7.13;6.43;;;16.80;49.20;;;;;;5012941;28;20671;-70
2022/12/01 05:30:47;;;;;;;6.25;5.65;;;16.80;49.30;;;;;;5014057;28;20193;-70
2022/12/01 05:33:15;;;;;;;6.72;6.03;;;16.80;49.20;;;;;;5012761;28;20220;-70
2022/12/01 05:35:42;;;;;;;6.95;6.22;;;16.80;49.10;;;;;;5012151;28;20215;-71
2022/12/01 05:38:10;;;;;;;6.50;5.90;;;16.90;49.20;;;;;;5012883;28;20200;-69
2022/12/01 05:40:37;;;;;;;7.30;6.55;;;16.90;49.40;;;;;;5013039;28;20200;-69
2022/12/01 05:43:04;;;;;;;6.88;6.13;;;16.90;49.40;;;;;;5012331;28;20616;-69
2022/12/01 05:45:31;;;;;;;7.93;6.93;;;16.90;49.20;;;;;;5007887;28;20208;-69
2022/12/01 05:47:58;;;;;;;7.40;6.60;;;16.90;49.00;;;;;;5009082;28;20210;-69
2022/12/01 05:50:28;;;;;;;6.90;6.20;;;16.90;48.90;;;;;;5008647;28;20581;-69
2022/12/01 05:52:55;;;;;;;7.78;6.97;;;16.90;49.20;;;;;;5013088;28;20618;-69
2022/12/01 05:55:22;;;;;;;7.75;6.95;;;16.90;49.30;;;;;;5012642;28;20200;-69
2022/12/01 05:57:49;;;;;;;8.15;7.10;;;17.00;49.10;;;;;;5012828;28;20229;-69
2022/12/01 06:00:18;;;;;;;7.55;6.70;;;17.00;49.20;;;;;;5003262;28;20577;-69
2022/12/01 06:02:44;;;;;;;7.43;6.43;;;17.00;49.30;;;;;;5012243;28;20254;-69
2022/12/01 06:05:11;;;;;;;7.65;6.85;;;17.00;49.10;;;;;;5003165;28;20200;-69
2022/12/01 06:07:40;;;;;;;7.75;6.93;;;17.10;49.10;;;;;;5005049;28;20207;-69
2022/12/01 06:10:08;;;;;;;7.38;6.68;;;17.10;48.80;;;;;;5011257;28;20224;-69
2022/12/01 06:12:35;;;;;;;8.55;7.10;;;17.10;48.90;;;;;;5013262;28;20200;-69
2022/12/01 06:15:02;;;;;;;9.25;7.75;;;17.10;48.80;;;;;;5011393;28;20193;-69
2022/12/01 06:17:29;;;;;;;8.23;7.30;;;17.20;49.00;;;;;;5011745;28;20246;-68
2022/12/01 06:19:57;;;;;;;6.90;6.20;;;17.20;48.60;;;;;;5010428;28;20220;-69
2022/12/01 06:22:24;;;;;;;7.57;6.88;;;17.20;48.90;;;;;;5001085;28;20248;-69
2022/12/01 06:24:52;;;;;;;6.55;5.95;;;17.20;49.00;;;;;;5001437;28;20296;-69
2022/12/01 06:27:20;;;;;;;7.13;6.43;;;17.20;49.00;;;;;;5011056;28;20231;-69
2022/12/01 06:29:48;;;;;;;7.63;6.65;;;17.10;49.10;;;;;;5009871;28;20263;-69
2022/12/01 06:32:15;;;;;;;6.20;5.15;;;17.10;48.80;;;;;;5007665;28;20293;-69
2022/12/01 06:34:42;;;;;;;8.23;7.32;;;17.10;49.20;;;;;;5013480;28;20204;-69
2022/12/01 06:37:10;;;;;;;9.55;6.35;;;17.10;48.90;;;;;;5015842;28;20701;-69
2022/12/01 06:39:37;;;;;;;7.90;6.93;;;17.10;48.80;;;;;;5016215;28;20738;-69
2022/12/01 06:42:05;;;;;;;7.53;6.72;;;17.10;48.60;;;;;;5015424;28;20539;-69
2022/12/01 06:44:32;;;;;;;7.57;6.75;;;17.10;48.70;;;;;;5015800;28;20586;-68
2022/12/01 06:46:59;;;;;;;7.75;6.97;;;17.10;48.90;;;;;;5013965;28;20200;-68
2022/12/01 06:49:26;;;;;;;7.90;7.10;;;17.10;48.60;;;;;;5011986;28;20216;-68
2022/12/01 06:51:53;;;;;;;7.70;6.90;;;17.10;48.50;;;;;;5013032;28;20251;-68
2022/12/01 06:54:20;;;;;;;7.57;6.88;;;17.20;48.50;;;;;;5013632;28;20208;-68
2022/12/01 06:56:48;;;;;;;7.47;6.75;;;17.20;48.30;;;;;;5013668;28;20318;-68
2022/12/01 06:59:16;;;;;;;7.80;7.07;;;17.20;48.20;;;;;;5013462;28;20232;-68
2022/12/01 07:01:44;;;;;;;8.18;7.25;;;17.20;48.20;;;;;;5014308;28;20283;-68
2022/12/01 07:04:11;;;;;;;7.68;6.95;;;17.20;48.20;;;;;;5013944;28;20641;-68
2022/12/01 07:06:38;;;;;;;8.52;7.50;;;17.20;48.00;;;;;;5015339;28;20184;-68
2022/12/01 07:09:06;;;;;;;8.23;7.43;;;17.30;48.00;;;;;;5014056;28;20212;-68
2022/12/01 07:11:35;;;;;;;7.93;7.13;;;17.30;47.80;;;;;;4998323;28;20200;-68
2022/12/01 07:14:02;;;;;;;7.90;6.90;;;17.30;47.90;;;;;;5014731;28;20201;-68
2022/12/01 07:16:31;;;;;;;8.13;7.22;;;17.30;47.80;;;;;;5015598;28;20831;-68
2022/12/01 07:18:59;;;;;;;7.82;7.03;;;17.30;47.70;;;;;;5014065;28;20221;-68
2022/12/01 07:21:26;;;;;;;7.90;7.10;;;17.30;47.90;;;;;;5014968;28;20624;-68
2022/12/01 07:23:54;;;;;;;7.93;7.13;;;17.30;48.50;;;;;;5013587;28;20200;-68
2022/12/01 07:26:21;;;;;;;8.32;7.53;;;17.30;48.00;;;;;;5013767;28;20196;-68
2022/12/01 07:28:48;;;;;;;7.97;7.15;;;17.30;47.80;;;;;;5015155;28;20299;-68
2022/12/01 07:31:16;;;;;;;8.35;7.50;;;17.30;48.00;;;;;;5013905;28;20672;-68
2022/12/01 07:33:44;;;;;;;8.13;7.32;;;17.30;48.10;;;;;;5015412;28;20199;-68
2022/12/01 07:36:12;;;;;;;7.95;7.15;;;17.30;48.00;;;;;;5014652;28;20200;-68
2022/12/01 07:38:39;;;;;;;8.45;7.55;;;17.30;47.90;;;;;;5014708;28;20312;-68
2022/12/01 07:41:07;;;;;;;7.97;7.10;;;17.30;47.90;;;;;;5016451;28;20200;-68
2022/12/01 07:43:34;;;;;;;8.00;7.20;;;17.30;47.80;;;;;;4966084;28;1384722;-68
2022/12/01 07:46:07;;;;;;;7.88;7.13;;;17.30;48.50;;;;;;5014363;28;20197;-68
2022/12/01 07:48:35;;;;;;;8.40;7.53;;;17.30;47.80;;;;;;5014263;28;20224;-68
2022/12/01 07:51:03;;;;;;;8.18;7.38;;;17.40;47.70;;;;;;5014581;28;20197;-68
2022/12/01 07:53:30;;;;;;;7.45;6.75;;;17.40;47.60;;;;;;5015305;28;20652;-68
2022/12/01 07:55:57;;;;;;;8.90;8.00;;;17.40;47.70;;;;;;5015175;28;20196;-68
2022/12/01 07:58:25;;;;;;;7.97;7.18;;;17.40;47.50;;;;;;5013907;28;20255;-68
2022/12/01 08:00:52;;;;;;;7.40;6.60;;;17.40;47.40;;;;;;5014029;28;20193;-68
2022/12/01 08:03:19;;;;;;;8.10;7.30;;;17.40;47.50;;;;;;5013728;28;20222;-68
2022/12/01 08:05:55;;;;;;;8.75;7.85;;;17.50;47.10;;;;;;5014365;28;20606;-68
2022/12/01 08:08:25;;;;;;;7.25;6.55;;;17.50;47.10;;;;;;5013815;28;20624;-68
2022/12/01 08:10:53;;;;;;;8.15;7.32;;;17.50;47.70;;;;;;5015320;28;20189;-68
2022/12/01 08:13:20;;;;;;;8.60;7.70;;;17.60;47.10;;;;;;5013934;28;20652;-68
2022/12/01 08:15:47;;;;;;;8.25;7.28;;;17.60;46.90;;;;;;5014872;28;20215;-68
2022/12/01 08:18:15;;;;;;;8.32;7.45;;;17.60;46.80;;;;;;5014586;28;20236;-68
2022/12/01 08:20:42;;;;;;;7.82;7.07;;;17.60;46.70;;;;;;5013591;28;20211;-68
2022/12/01 08:23:09;;;;;;;8.70;7.80;;;17.70;46.70;;;;;;5013642;28;20188;-68
2022/12/01 08:25:37;;;;;;;9.48;7.80;;;17.70;46.60;;;;;;5013424;28;20230;-68
2022/12/01 08:28:05;;;;;;;7.63;6.82;;;17.70;46.70;;;;;;5013591;28;20199;-68
2022/12/01 08:30:32;;;;;;;8.10;7.30;;;17.70;46.50;;;;;;5013847;28;20587;-68
2022/12/01 08:32:59;;;;;;;8.43;7.53;;;17.70;46.70;;;;;;5013516;28;20196;-68
2022/12/01 08:35:26;;;;;;;8.20;7.40;;;17.70;46.70;;;;;;5013589;28;20207;-68
2022/12/01 08:37:53;;;;;;;7.97;7.18;;;17.70;46.80;;;;;;5013578;28;20227;-68
2022/12/01 08:40:20;;;;;;;8.68;7.78;;;17.70;46.60;;;;;;5013598;28;20225;-68
2022/12/01 08:42:48;;;;;;;8.15;7.35;;;17.70;46.80;;;;;;5013463;28;20196;-68
2022/12/01 08:45:15;;;;;;;7.82;7.03;;;17.70;46.70;;;;;;5013040;28;20697;-68
2022/12/01 08:47:43;;;;;;;8.27;6.97;;;17.70;46.70;;;;;;5013173;28;20248;-68
2022/12/01 08:50:10;;;;;;;8.00;7.20;;;17.80;46.40;;;;;;5013001;28;20224;-68
2022/12/01 08:52:38;;;;;;;9.10;7.25;;;17.70;46.50;;;;;;5013125;28;20571;-68
2022/12/01 08:55:06;;;;;;;7.55;6.65;;;17.80;46.60;;;;;;5012963;28;20193;-68
2022/12/01 08:57:33;;;;;;;8.02;7.13;;;17.70;46.70;;;;;;5013248;28;20279;-68
2022/12/01 09:00:02;;;;;;;8.35;7.53;;;17.70;46.70;;;;;;5012807;28;20585;-68
2022/12/01 09:02:29;;;;;;;8.48;7.53;;;17.70;46.60;;;;;;5012934;28;20271;-68
2022/12/01 09:04:56;;;;;;;7.60;6.75;;;17.70;46.70;;;;;;5012922;28;20515;-68
2022/12/01 09:07:23;;;;;;;8.65;7.38;;;17.70;46.90;;;;;;4997001;28;20200;-68
2022/12/01 09:09:50;;;;;;;7.55;6.85;;;17.70;46.50;;;;;;5013033;28;20227;-68
2022/12/01 09:12:17;;;;;;;7.22;6.47;;;17.70;46.50;;;;;;5013403;28;20184;-68
2022/12/01 09:14:46;;;;;;;9.00;8.10;;;17.70;46.30;;;;;;5014339;28;20665;-68
2022/12/01 09:17:15;;;;;;;8.57;7.60;;;17.70;46.50;;;;;;5012765;28;20212;-68
2022/12/01 09:19:42;;;;;;;8.73;7.38;;;17.70;46.20;;;;;;5012525;28;20220;-68
2022/12/01 09:22:09;;;;;;;8.35;7.53;;;17.70;46.40;;;;;;5012881;28;20283;-68
2022/12/01 09:24:36;;;;;;;7.68;6.95;;;17.70;46.30;;;;;;5012953;28;20284;-68
2022/12/01 09:27:04;;;;;;;9.10;7.35;;;17.70;46.30;;;;;;5013080;28;20193;-68
2022/12/01 09:29:30;;;;;;;7.57;6.88;;;17.80;46.30;;;;;;5013366;28;20213;-68
2022/12/01 09:31:58;;;;;;;8.63;7.72;;;17.80;46.50;;;;;;5014511;28;20192;-68
2022/12/01 09:34:26;;;;;;;8.45;7.38;;;17.80;46.40;;;;;;5013234;28;20243;-68
2022/12/01 09:36:55;;;;;;;8.55;7.47;;;17.80;46.30;;;;;;5014016;28;20196;-68
2022/12/01 09:39:22;;;;;;;8.32;7.53;;;17.80;46.30;;;;;;5014417;28;20572;-68
2022/12/01 09:41:50;;;;;;;8.40;7.45;;;17.90;45.90;;;;;;5014032;28;20199;-68
2022/12/01 09:44:23;;;;;;;8.32;7.53;;;17.90;46.00;;;;;;5017668;28;20545;-68
2022/12/01 09:46:52;;;;;;;8.40;7.60;;;17.80;46.00;;;;;;5013861;28;20640;-68
2022/12/01 09:49:22;;;;;;;8.10;7.20;;;17.90;46.10;;;;;;5013830;28;20215;-68
2022/12/01 09:51:51;;;;;;;7.93;7.20;;;17.90;46.20;;;;;;5013163;28;20193;-68
2022/12/01 09:54:18;;;;;;;7.82;7.03;;;17.90;46.30;;;;;;5013249;28;20204;-68
2022/12/01 09:56:48;;;;;;;8.32;7.53;;;17.90;46.10;;;;;;5012729;28;20211;-67
2022/12/01 09:59:19;;;;;;;7.75;6.95;;;17.90;46.00;;;;;;5012874;28;20216;-67
2022/12/01 10:01:48;;;;;;;8.07;7.28;;;17.90;46.00;;;;;;5012957;28;20247;-67
2022/12/01 10:04:17;;;;;;;7.43;6.72;;;17.90;45.90;;;;;;5012644;28;20207;-67
2022/12/01 10:06:49;;;;;;;8.50;7.60;;;17.90;46.70;;;;;;5012705;28;20188;-67
2022/12/01 10:09:21;;;;;;;8.10;6.95;;;17.90;45.80;;;;;;5016668;28;20561;-67
2022/12/01 10:11:49;;;;;;;8.30;7.38;;;17.90;46.00;;;;;;5016856;28;20199;-67
2022/12/01 10:14:17;;;;;;;9.23;7.18;;;17.90;46.20;;;;;;5016613;28;20565;-67
2022/12/01 10:16:47;;;;;;;8.10;7.30;;;17.90;46.00;;;;;;5016752;28;20201;-67
2022/12/01 10:19:15;;;;;;;8.05;7.25;;;17.90;46.20;;;;;;5016866;28;20220;-67
2022/12/01 10:22:03;;;;;;;7.90;7.10;;;17.90;46.30;;;;;;5017688;28;20688;-67
2022/12/01 10:24:39;;;;;;;8.73;7.40;;;17.90;46.10;;;;;;5016658;28;20216;-68
2022/12/01 10:27:11;;;;;;;8.18;7.38;;;17.90;45.80;;;;;;5016389;28;20211;-68
2022/12/01 10:29:41;;;;;;;8.38;7.47;;;17.90;46.00;;;;;;5017368;28;20299;-67
2022/12/01 10:32:12;;;;;;;8.15;6.72;;;17.90;46.10;;;;;;5016174;28;20624;-67
2022/12/01 10:34:40;;;;;;;7.90;7.18;;;17.90;46.10;;;;;;5015930;28;20201;-67
2022/12/01 10:37:09;;;;;;;7.15;6.35;;;17.90;46.20;;;;;;5017614;28;20185;-67
2022/12/01 10:39:38;;;;;;;7.85;7.05;;;18.00;46.00;;;;;;5017317;28;20212;-67
2022/12/01 10:42:08;;;;;;;8.10;7.13;;;18.00;46.20;;;;;;5015708;28;20196;-67
2022/12/01 10:44:35;;;;;;;8.70;7.72;;;18.00;46.00;;;;;;5015630;28;20291;-67
2022/12/01 10:47:02;;;;;;;7.85;7.05;;;18.00;45.80;;;;;;5015571;28;20201;-68
2022/12/01 10:49:36;;;;;;;8.38;7.22;;;18.00;46.00;;;;;;5015416;28;20225;-68
2022/12/01 10:52:03;;;;;;;8.00;7.20;;;17.90;45.80;;;;;;4999669;28;20247;-68
2022/12/01 10:54:32;;;;;;;7.75;6.95;;;17.90;45.90;;;;;;5015410;28;20561;-68
2022/12/01 10:57:01;;;;;;;8.07;7.28;;;18.00;46.00;;;;;;5015125;28;20207;-68
2022/12/01 10:59:32;;;;;;;7.85;7.15;;;17.90;46.10;;;;;;5015227;28;20618;-68
2022/12/01 11:01:59;;;;;;;8.25;7.45;;;18.00;46.20;;;;;;5015464;28;20631;-68
2022/12/01 11:04:41;;;;;;;8.70;7.80;;;18.00;46.00;;;;;;5015332;28;20229;-68
2022/12/01 11:07:09;;;;;;;7.78;7.05;;;18.00;46.00;;;;;;5014959;28;20208;-68
2022/12/01 11:09:36;;;;;;;7.93;7.13;;;18.00;46.00;;;;;;5016412;28;20250;-68
2022/12/01 11:12:05;;;;;;;7.78;6.97;;;18.00;45.80;;;;;;5015096;28;20664;-68
2022/12/01 11:14:37;;;;;;;8.27;7.47;;;18.00;45.80;;;;;;5014839;28;20421;-68
2022/12/01 11:17:25;;;;;;;7.88;7.07;;;18.00;45.90;;;;;;5015012;28;20201;-67
2022/12/01 11:19:52;;;;;;;7.88;7.15;;;18.00;45.90;;;;;;5013671;28;20244;-67
2022/12/01 11:22:21;;;;;;;8.20;7.40;;;18.00;45.90;;;;;;5014739;28;20562;-67
2022/12/01 11:25:00;;;;;;;7.80;6.90;;;18.00;45.80;;;;;;5014799;28;20572;-67
2022/12/01 11:27:30;;;;;;;8.07;7.30;;;18.00;45.80;;;;;;5015351;28;20205;-67
2022/12/01 11:29:58;;;;;;;8.23;7.10;;;18.00;45.60;;;;;;5014503;28;20342;-67
2022/12/01 11:32:26;;;;;;;7.80;7.00;;;18.00;46.00;;;;;;5014694;28;20196;-67
2022/12/01 11:34:55;;;;;;;7.97;7.18;;;18.00;45.90;;;;;;5014204;28;20561;-67
2022/12/01 11:37:24;;;;;;;8.30;7.50;;;18.00;46.00;;;;;;5014402;28;20197;-67
2022/12/01 11:39:52;;;;;;;7.57;6.65;;;18.00;45.80;;;;;;5014350;28;20224;-67
2022/12/01 11:42:22;;;;;;;9.27;7.55;;;18.00;45.80;;;;;;5015579;28;20211;-67
2022/12/01 11:44:51;;;;;;;8.30;7.35;;;18.00;45.80;;;;;;5016119;28;20203;-67
2022/12/01 11:47:20;;;;;;;7.40;6.68;;;18.00;45.90;;;;;;5014338;28;20204;-67
2022/12/01 11:49:51;;;;;;;7.38;6.70;;;18.00;45.70;;;;;;5014458;28;20216;-67
2022/12/01 11:52:22;;;;;;;8.82;7.20;;;18.00;45.70;;;;;;5014345;28;20203;-67
2022/12/01 11:54:57;;;;;;;7.53;6.75;;;18.10;45.70;;;;;;5015799;28;20169;-67
2022/12/01 11:57:24;;;;;;;7.80;7.05;;;18.10;45.80;;;;;;5015556;28;20188;-68
2022/12/01 11:59:53;;;;;;;7.57;6.85;;;18.20;45.90;;;;;;5013840;28;20221;-68
2022/12/01 12:02:26;;;;;;;8.52;7.28;;;18.10;45.80;;;;;;5014048;28;20280;-68
2022/12/01 12:05:16;;;;;;;7.63;6.93;;;18.10;45.70;;;;;;5013944;28;20247;-68
2022/12/01 12:07:48;;;;;;;7.68;6.88;;;18.10;45.70;;;;;;5014855;28;20605;-68
2022/12/01 12:10:23;;;;;;;7.55;6.75;;;18.10;45.40;;;;;;5013851;28;20307;-68
2022/12/01 12:13:02;;;;;;;8.07;7.28;;;18.10;45.70;;;;;;5013746;28;20201;-68
2022/12/01 12:15:36;;;;;;;8.05;7.13;;;18.10;45.50;;;;;;5013918;28;20216;-68
2022/12/01 12:18:18;;;;;;;8.02;6.90;;;18.10;45.70;;;;;;5013974;28;20695;-68
2022/12/01 12:20:52;;;;;;;8.07;7.10;;;18.10;45.70;;;;;;5014105;28;20556;-68
2022/12/01 12:23:28;;;;;;;7.53;6.72;;;18.10;45.40;;;;;;5014188;28;20188;-68
2022/12/01 12:26:00;;;;;;;8.02;7.22;;;18.10;45.50;;;;;;5013799;28;20557;-68
2022/12/01 12:28:36;;;;;;;9.07;7.18;;;18.10;45.50;;;;;;5013752;28;20188;-68
2022/12/01 12:31:09;;;;;;;8.10;6.97;;;18.10;45.50;;;;;;5015011;28;20180;-68
2022/12/01 12:34:00;;;;;;;7.88;7.03;;;18.20;45.70;;;;;;4997718;28;20203;-68
2022/12/01 12:36:34;;;;;;;7.80;7.00;;;18.20;45.60;;;;;;5014360;28;20322;-68
2022/12/01 12:39:07;;;;;;;7.68;6.97;;;18.20;45.70;;;;;;5010222;28;20668;-68
2022/12/01 12:41:36;;;;;;;7.32;6.63;;;18.20;45.70;;;;;;5004429;28;20287;-68
2022/12/01 12:44:19;;;;;;;7.60;6.88;;;18.20;45.70;;;;;;4995097;28;20211;-68
2022/12/01 12:46:55;;;;;;;7.95;7.20;;;18.20;45.60;;;;;;5011472;28;20671;-68
2022/12/01 12:49:29;;;;;;;8.00;7.15;;;18.20;45.40;;;;;;5014169;28;20216;-68
2022/12/01 12:51:59;;;;;;;7.68;6.95;;;18.20;45.10;;;;;;4991321;28;20208;-68
2022/12/01 12:54:28;;;;;;;7.97;7.18;;;18.20;45.30;;;;;;5011094;28;20205;-68
2022/12/01 12:57:02;;;;;;;7.30;6.60;;;18.20;45.40;;;;;;5012567;28;20201;-68
2022/12/01 12:59:31;;;;;;;7.97;7.13;;;18.20;45.20;;;;;;5015376;28;20224;-67
2022/12/01 13:02:02;;;;;;;7.30;6.60;;;18.20;45.50;;;;;;5015241;28;20200;-67
2022/12/01 13:04:34;;;;;;;7.80;7.00;;;18.20;45.40;;;;;;5015318;28;20185;-67